ジョン・F・ケネディ国際空港の過去48時間の天気

ジョン・F・ケネディ国際空港 (New York, Kennedy International Airport)

現在時刻: 1/17 01:52 EST (1/17 06:52 UTC) 以下の時間は現地時間です。

過去48時間のMETAR気象情報
時間 風向 風速(m/s) 視程 気温(℃) 湿度(%) 気圧(hPa) 天気現象
17 00:51 西南西 6 10km以上 5 53 1025.8
16 23:51 南西 5 10km以上 5 55 1026.3
16 22:51 南西 4 10km以上 4.4 60 1026.8
16 21:51 西南西 4 10km以上 5 57 1027.5
16 20:51 南西 4 10km以上 5 55 1027.7
16 19:51 南西 4 10km以上 4.4 60 1027.9
16 18:51 南西 5 10km以上 3.3 64 1027.9
16 17:51 南南西 4 10km以上 2.8 70 1028.2
16 16:51 4 10km以上 3.3 62 1028.3
16 15:51 南南西 5 10km以上 5 53 1028.6
16 14:51 南南西 5 10km以上 5 48 1028.5
16 13:51 南南西 5 10km以上 5.6 43 1029
16 12:51 南西 5 10km以上 4.4 48 1029.9
16 11:51 西南西 3 10km以上 3.3 48 1031.1
16 10:51 西南西 2 10km以上 2.8 46 1032.1
16 09:51 静穏 0 10km以上 2.8 44 1032.4
16 08:51 静穏 0 10km以上 1.1 56 1032.3
16 07:51 2 10km以上 -1.1 66 1031.8
16 06:51 静穏 0 10km以上 -1.1 60 1031.7
16 05:51 3 10km以上 -1.7 63 1031.4
16 04:51 2 10km以上 -1.1 63 1031.2
16 03:51 2 10km以上 -2.2 69 1031.4
16 02:51 2 10km以上 -0.6 61 1031.5
16 01:51 2 10km以上 -0.6 58 1031.1
16 00:51 2 10km以上 -0.6 58 1030.5
15 23:51 2 10km以上 0 56 1030.3
15 22:51 3 10km以上 0.6 53 1030.2
15 21:51 北北西 2 10km以上 1.1 51 1029.9
15 20:51 北西 4 10km以上 2.2 48 1030
15 19:51 北北西 4 10km以上 2.2 48 1029
15 18:51 北北西 3 10km以上 2.8 48 1029
15 17:51 西北西 4 10km以上 3.3 46 1028.7
15 16:51 北北西 3 10km以上 3.3 46 1027.6
15 15:51 北西 4 10km以上 5 41 1027.5
15 14:51 北西 3 10km以上 5 43 1027.2
15 13:51 北西 5 10km以上 5 43 1027.1
15 12:51 北北西 5 10km以上 3.9 46 1027.3
15 11:51 5 10km以上 2.8 50 1028.1
15 10:51 北西 4 10km以上 2.2 50 1028.7
15 09:51 北北西 3 10km以上 1.7 54 1028.8
15 08:51 北北西 4 10km以上 0.6 58 1028.6
15 07:51 北北西 3 10km以上 -0.6 63 1027.8
15 06:51 北北西 4 10km以上 -0.6 63 1026.7
15 05:51 北西 5 10km以上 0 66 1026
15 04:51 北西 6 10km以上 0.6 69 1025.5
15 03:51 北西 5 10km以上 0.6 72 1025.4
15 02:51 西北西 4 10km以上 1.1 75 1025.7
KJFK 170551Z 24012KT 10SM OVC070 05/M04 A3030 RMK AO2 SLP258 T00501039 10050 20033 56017
KJFK 170451Z 23009KT 10SM OVC070 05/M03 A3031 RMK AO2 SLP263 T00501033 400561022
KJFK 170351Z 23007KT 10SM OVC090 04/M03 A3033 RMK AO2 SLP268 T00441028
KJFK 170251Z 24008KT 10SM BKN090 OVC120 05/M03 A3034 RMK AO2 SLP275 T00501028 58004
KJFK 170151Z 23008KT 10SM BKN100 OVC120 05/M03 A3035 RMK AO2 SLP277 T00501033
KJFK 170051Z 23008KT 10SM BKN100 BKN140 OVC250 04/M03 A3036 RMK AO2 SLP279 T00441028
KJFK 162351Z 23009KT 10SM SCT150 BKN250 03/M03 A3036 RMK AO2 SLP279 T00331028 10056 20028 56007
KJFK 162251Z 21007KT 10SM FEW080 SCT170 BKN250 03/M02 A3037 RMK AO2 SLP282 T00281022
KJFK 162151Z 19008KT 10SM FEW080 BKN250 03/M03 A3037 RMK AO2 SLP283 T00331033
KJFK 162051Z 20009KT 10SM FEW080 BKN250 05/M04 A3038 RMK AO2 SLP286 T00501039 55013
KJFK 161951Z 20009KT 10SM FEW080 BKN250 05/M05 A3037 RMK AO2 SLP285 T00501050
KJFK 161851Z 20009KT 10SM BKN250 06/M06 A3039 RMK AO2 SLP290 T00561061
KJFK 161751Z 23009KT 10SM BKN250 04/M06 A3042 RMK AO2 SLP299 T00441056 10044 21017 58025
KJFK 161651Z 24006KT 10SM SCT250 03/M07 A3045 RMK AO2 SLP311 T00331067
KJFK 161551Z 24004KT 10SM SCT250 03/M08 A3048 RMK AO2 SLP321 T00281078
KJFK 161451Z 00000KT 10SM SCT250 03/M08 A3049 RMK AO2 SLP324 T00281083 52007
KJFK 161351Z 00000KT 10SM SCT250 01/M07 A3049 RMK AO2 SLP323 T00111067
KJFK 161251Z 01003KT 10SM SCT250 M01/M07 A3047 RMK AO2 SLP318 T10111067
KJFK 161151Z 00000KT 10SM FEW250 M01/M08 A3047 RMK AO2 SLP317 T10111078 10000 21022 53003
KJFK 161051Z 35005KT 10SM CLR M02/M08 A3046 RMK AO2 SLP314 T10171078
KJFK 160951Z 35004KT 10SM CLR M01/M07 A3045 RMK AO2 SLP312 T10111072
KJFK 160851Z 36003KT 10SM CLR M02/M07 A3046 RMK AO2 SLP314 T10221072 50009
KJFK 160751Z 01004KT 10SM FEW250 M01/M07 A3046 RMK AO2 SLP315 T10061072
KJFK 160651Z 36004KT 10SM FEW250 M01/M08 A3045 RMK AO2 SLP311 T10061078
KJFK 160551Z 35004KT 10SM FEW250 M01/M08 A3043 RMK AO2 SLP305 T10061078 10028 21006 51006
KJFK 160451Z 35004KT 10SM FEW250 00/M08 A3043 RMK AO2 SLP303 T00001078 400501011
KJFK 160351Z 35005KT 10SM FEW250 01/M08 A3042 RMK AO2 SLP302 T00061078
KJFK 160251Z 33004KT 10SM FEW250 01/M08 A3042 RMK AO2 SLP299 T00111078 50008
KJFK 160151Z 32007KT 10SM FEW250 02/M08 A3042 RMK AO2 SLP300 T00221078
KJFK 160051Z 34007KT 10SM FEW250 02/M08 A3039 RMK AO2 SLP290 T00221078
KJFK 152351Z 34006KT 10SM SCT250 03/M07 A3039 RMK AO2 SLP290 T00281072 10050 20022 53016
KJFK 152251Z 30007KT 10SM BKN250 03/M07 A3038 RMK AO2 SLP287 T00331072
KJFK 152151Z 33005KT 10SM BKN250 03/M07 A3035 RMK AO2 SLP276 T00331072
KJFK 152051Z 32007KT 10SM BKN250 05/M07 A3034 RMK AO2 SLP275 T00501072 53002
KJFK 151951Z 32005KT 10SM BKN250 05/M07 A3034 RMK AO2 SLP272 T00501067
KJFK 151851Z 31010KT 10SM BKN250 05/M07 A3033 RMK AO2 SLP271 T00501067
KJFK 151751Z 33009KT 10SM SCT250 04/M07 A3034 RMK AO2 SLP273 4/001 T00391067 10039 21011 58016
KJFK 151651Z 35010KT 10SM FEW040 FEW250 03/M07 A3036 RMK AO2 SLP281 T00281067
KJFK 151551Z 31008KT 10SM FEW040 FEW250 02/M07 A3038 RMK AO2 SLP287 T00221072
KJFK 151451Z 34006KT 10SM FEW250 02/M07 A3038 RMK AO2 SLP288 T00171067 51021
KJFK 151351Z 33008KT 10SM FEW075 01/M07 A3038 RMK AO2 SLP286 T00061067
KJFK 151251Z 33006KT 10SM FEW075 M01/M07 A3035 RMK AO2 SLP278 T10061067
KJFK 151151Z 33007KT 10SM FEW075 M01/M07 A3032 RMK AO2 SLP267 4/002 70015 T10061067 10011 21006 53013
KJFK 151051Z 32010KT 10SM FEW070 FEW200 00/M06 A3030 RMK AO2 SLP260 T00001056
KJFK 150951Z 32011KT 10SM SCT070 SCT200 01/M04 A3029 RMK AO2 SLP255 T00061044
KJFK 150851Z 31009KT 10SM BKN065 BKN200 01/M04 A3028 RMK AO2 SLP254 T00061039 56008
KJFK 150751Z 30008KT 10SM SCT016 BKN060 OVC080 01/M03 A3029 RMK AO2 SLP257 T00111028